sensor_id;sensor_type;location;lat;lon;timestamp;temperature;humidity
28837;DHT22;50669;50.982;11.022;2023-10-19T00:01:23;19.20;81.00
28837;DHT22;50669;50.982;11.022;2023-10-19T00:03:53;19.20;81.00
28837;DHT22;50669;50.982;11.022;2023-10-19T00:06:22;19.20;81.10
28837;DHT22;50669;50.982;11.022;2023-10-19T00:08:52;19.20;81.10
28837;DHT22;50669;50.982;11.022;2023-10-19T00:11:18;19.20;81.20
28837;DHT22;50669;50.982;11.022;2023-10-19T00:13:52;19.20;81.10
28837;DHT22;50669;50.982;11.022;2023-10-19T00:16:20;19.20;81.20
28837;DHT22;50669;50.982;11.022;2023-10-19T00:18:54;19.20;81.20
28837;DHT22;50669;50.982;11.022;2023-10-19T00:21:24;19.20;81.30
28837;DHT22;50669;50.982;11.022;2023-10-19T00:23:52;19.20;81.30
28837;DHT22;50669;50.982;11.022;2023-10-19T00:26:25;19.20;81.40
28837;DHT22;50669;50.982;11.022;2023-10-19T00:28:52;19.20;81.30
28837;DHT22;50669;50.982;11.022;2023-10-19T00:31:39;19.20;81.40
28837;DHT22;50669;50.982;11.022;2023-10-19T00:34:06;19.20;81.50
28837;DHT22;50669;50.982;11.022;2023-10-19T00:36:32;19.20;81.50
28837;DHT22;50669;50.982;11.022;2023-10-19T00:38:59;19.20;81.50
28837;DHT22;50669;50.982;11.022;2023-10-19T00:41:26;19.20;81.60
28837;DHT22;50669;50.982;11.022;2023-10-19T00:43:56;19.20;81.60
28837;DHT22;50669;50.982;11.022;2023-10-19T00:46:36;19.20;81.60
28837;DHT22;50669;50.982;11.022;2023-10-19T00:49:08;19.20;81.70
28837;DHT22;50669;50.982;11.022;2023-10-19T00:51:47;19.20;81.70
28837;DHT22;50669;50.982;11.022;2023-10-19T00:56:59;19.20;81.80
28837;DHT22;50669;50.982;11.022;2023-10-19T00:59:31;19.20;81.70
28837;DHT22;50669;50.982;11.022;2023-10-19T01:02:01;19.20;81.90
28837;DHT22;50669;50.982;11.022;2023-10-19T01:05:04;19.20;81.90
28837;DHT22;50669;50.982;11.022;2023-10-19T01:07:31;19.20;82.00
28837;DHT22;50669;50.982;11.022;2023-10-19T01:10:03;19.20;82.00
28837;DHT22;50669;50.982;11.022;2023-10-19T01:12:33;19.20;82.10
28837;DHT22;50669;50.982;11.022;2023-10-19T01:17:35;19.20;82.20
28837;DHT22;50669;50.982;11.022;2023-10-19T01:20:16;19.20;81.90
28837;DHT22;50669;50.982;11.022;2023-10-19T01:23:04;19.20;82.30
28837;DHT22;50669;50.982;11.022;2023-10-19T01:25:46;19.20;82.20
28837;DHT22;50669;50.982;11.022;2023-10-19T01:28:14;19.20;82.40
28837;DHT22;50669;50.982;11.022;2023-10-19T01:30:43;19.20;82.30
28837;DHT22;50669;50.982;11.022;2023-10-19T01:33:10;19.20;82.30
28837;DHT22;50669;50.982;11.022;2023-10-19T01:35:41;19.20;82.40
28837;DHT22;50669;50.982;11.022;2023-10-19T01:38:29;19.20;82.40
28837;DHT22;50669;50.982;11.022;2023-10-19T01:41:02;19.20;82.40
28837;DHT22;50669;50.982;11.022;2023-10-19T01:43:31;19.20;82.40
28837;DHT22;50669;50.982;11.022;2023-10-19T01:45:58;19.20;82.50
28837;DHT22;50669;50.982;11.022;2023-10-19T01:48:32;19.20;82.50
28837;DHT22;50669;50.982;11.022;2023-10-19T01:51:04;19.20;82.50
28837;DHT22;50669;50.982;11.022;2023-10-19T01:53:33;19.20;82.60
28837;DHT22;50669;50.982;11.022;2023-10-19T01:56:00;19.20;82.60
28837;DHT22;50669;50.982;11.022;2023-10-19T01:58:28;19.20;82.70
28837;DHT22;50669;50.982;11.022;2023-10-19T02:00:54;19.20;82.80
28837;DHT22;50669;50.982;11.022;2023-10-19T02:03:28;19.20;82.90
28837;DHT22;50669;50.982;11.022;2023-10-19T02:05:58;19.20;82.90
28837;DHT22;50669;50.982;11.022;2023-10-19T02:08:25;19.20;83.10
28837;DHT22;50669;50.982;11.022;2023-10-19T02:10:55;19.20;83.30
28837;DHT22;50669;50.982;11.022;2023-10-19T02:13:21;19.20;83.40
28837;DHT22;50669;50.982;11.022;2023-10-19T02:15:46;19.20;83.40
28837;DHT22;50669;50.982;11.022;2023-10-19T02:18:12;19.20;83.50
28837;DHT22;50669;50.982;11.022;2023-10-19T02:20:39;19.20;83.50
28837;DHT22;50669;50.982;11.022;2023-10-19T02:23:07;19.20;83.60
28837;DHT22;50669;50.982;11.022;2023-10-19T02:25:34;19.20;83.60
28837;DHT22;50669;50.982;11.022;2023-10-19T02:28:06;19.20;83.60
28837;DHT22;50669;50.982;11.022;2023-10-19T02:30:37;19.20;83.70
28837;DHT22;50669;50.982;11.022;2023-10-19T02:33:06;19.20;83.80
28837;DHT22;50669;50.982;11.022;2023-10-19T02:35:34;19.20;83.90
28837;DHT22;50669;50.982;11.022;2023-10-19T02:38:00;19.20;84.00
28837;DHT22;50669;50.982;11.022;2023-10-19T02:40:26;19.20;84.10
28837;DHT22;50669;50.982;11.022;2023-10-19T02:42:59;19.20;84.10
28837;DHT22;50669;50.982;11.022;2023-10-19T02:45:28;19.20;84.10
28837;DHT22;50669;50.982;11.022;2023-10-19T02:47:58;19.20;84.30
28837;DHT22;50669;50.982;11.022;2023-10-19T02:50:24;19.20;84.30
28837;DHT22;50669;50.982;11.022;2023-10-19T02:52:52;19.20;84.30
28837;DHT22;50669;50.982;11.022;2023-10-19T02:55:19;19.20;84.30
28837;DHT22;50669;50.982;11.022;2023-10-19T02:57:51;19.20;84.40
28837;DHT22;50669;50.982;11.022;2023-10-19T03:00:17;19.20;84.40
28837;DHT22;50669;50.982;11.022;2023-10-19T03:02:47;19.20;84.50
28837;DHT22;50669;50.982;11.022;2023-10-19T03:05:12;19.20;85.20
28837;DHT22;50669;50.982;11.022;2023-10-19T03:07:43;19.20;84.50
28837;DHT22;50669;50.982;11.022;2023-10-19T03:10:10;19.20;84.60
28837;DHT22;50669;50.982;11.022;2023-10-19T03:12:52;19.20;84.50
28837;DHT22;50669;50.982;11.022;2023-10-19T03:15:18;19.20;84.50
28837;DHT22;50669;50.982;11.022;2023-10-19T03:17:47;19.20;84.60
28837;DHT22;50669;50.982;11.022;2023-10-19T03:20:14;19.20;84.60
28837;DHT22;50669;50.982;11.022;2023-10-19T03:22:44;19.20;84.60
28837;DHT22;50669;50.982;11.022;2023-10-19T03:25:13;19.20;84.70
28837;DHT22;50669;50.982;11.022;2023-10-19T03:27:57;19.20;84.60
28837;DHT22;50669;50.982;11.022;2023-10-19T03:30:31;19.20;84.60
28837;DHT22;50669;50.982;11.022;2023-10-19T03:32:59;19.20;84.60
28837;DHT22;50669;50.982;11.022;2023-10-19T03:35:25;19.20;84.70
28837;DHT22;50669;50.982;11.022;2023-10-19T03:37:53;19.20;84.70
28837;DHT22;50669;50.982;11.022;2023-10-19T03:40:18;19.20;84.70
28837;DHT22;50669;50.982;11.022;2023-10-19T03:42:54;19.20;84.70
28837;DHT22;50669;50.982;11.022;2023-10-19T03:45:23;19.20;84.70
28837;DHT22;50669;50.982;11.022;2023-10-19T03:47:52;19.20;84.70
28837;DHT22;50669;50.982;11.022;2023-10-19T03:50:21;19.20;84.70
28837;DHT22;50669;50.982;11.022;2023-10-19T03:52:47;19.20;84.70
28837;DHT22;50669;50.982;11.022;2023-10-19T03:55:13;19.20;84.70
28837;DHT22;50669;50.982;11.022;2023-10-19T03:57:43;19.20;84.70
28837;DHT22;50669;50.982;11.022;2023-10-19T04:00:18;19.20;84.70
28837;DHT22;50669;50.982;11.022;2023-10-19T04:02:45;19.20;84.80
28837;DHT22;50669;50.982;11.022;2023-10-19T04:05:12;19.20;84.80
28837;DHT22;50669;50.982;11.022;2023-10-19T04:07:45;19.20;84.80
28837;DHT22;50669;50.982;11.022;2023-10-19T04:10:15;19.20;84.90
28837;DHT22;50669;50.982;11.022;2023-10-19T04:13:07;19.30;85.00
28837;DHT22;50669;50.982;11.022;2023-10-19T04:15:35;19.30;85.10
28837;DHT22;50669;50.982;11.022;2023-10-19T04:18:02;19.30;85.10
28837;DHT22;50669;50.982;11.022;2023-10-19T04:20:34;19.20;85.10
28837;DHT22;50669;50.982;11.022;2023-10-19T04:23:14;19.30;85.20
28837;DHT22;50669;50.982;11.022;2023-10-19T04:25:40;19.30;85.30
28837;DHT22;50669;50.982;11.022;2023-10-19T04:28:06;19.30;85.30
28837;DHT22;50669;50.982;11.022;2023-10-19T04:30:32;19.30;85.30
28837;DHT22;50669;50.982;11.022;2023-10-19T04:33:05;19.20;85.30
28837;DHT22;50669;50.982;11.022;2023-10-19T04:35:38;19.30;85.40
28837;DHT22;50669;50.982;11.022;2023-10-19T04:38:06;19.30;85.50
28837;DHT22;50669;50.982;11.022;2023-10-19T04:40:32;19.30;85.50
28837;DHT22;50669;50.982;11.022;2023-10-19T04:42:57;19.30;85.50
28837;DHT22;50669;50.982;11.022;2023-10-19T04:45:23;19.30;85.50
28837;DHT22;50669;50.982;11.022;2023-10-19T04:47:52;19.30;85.50
28837;DHT22;50669;50.982;11.022;2023-10-19T04:50:18;19.30;85.60
28837;DHT22;50669;50.982;11.022;2023-10-19T04:52:44;19.30;86.30
28837;DHT22;50669;50.982;11.022;2023-10-19T04:55:13;19.30;85.70
28837;DHT22;50669;50.982;11.022;2023-10-19T04:57:39;19.30;85.60
28837;DHT22;50669;50.982;11.022;2023-10-19T05:00:07;19.20;85.50
28837;DHT22;50669;50.982;11.022;2023-10-19T05:02:41;19.30;85.60
28837;DHT22;50669;50.982;11.022;2023-10-19T05:05:09;19.30;85.70
28837;DHT22;50669;50.982;11.022;2023-10-19T05:07:34;19.30;85.70
28837;DHT22;50669;50.982;11.022;2023-10-19T05:10:00;19.30;85.70
28837;DHT22;50669;50.982;11.022;2023-10-19T05:12:28;19.30;85.70
28837;DHT22;50669;50.982;11.022;2023-10-19T05:14:54;19.30;85.60
28837;DHT22;50669;50.982;11.022;2023-10-19T05:17:19;19.30;85.70
28837;DHT22;50669;50.982;11.022;2023-10-19T05:19:46;19.30;85.70
28837;DHT22;50669;50.982;11.022;2023-10-19T05:22:14;19.30;85.70
28837;DHT22;50669;50.982;11.022;2023-10-19T05:24:40;19.30;85.70
28837;DHT22;50669;50.982;11.022;2023-10-19T05:27:06;19.30;85.80
28837;DHT22;50669;50.982;11.022;2023-10-19T05:29:32;19.30;85.80
28837;DHT22;50669;50.982;11.022;2023-10-19T05:32:01;19.30;85.80
28837;DHT22;50669;50.982;11.022;2023-10-19T05:34:31;19.30;85.80
28837;DHT22;50669;50.982;11.022;2023-10-19T05:37:00;19.30;85.70
28837;DHT22;50669;50.982;11.022;2023-10-19T05:39:28;19.30;85.80
28837;DHT22;50669;50.982;11.022;2023-10-19T05:41:54;19.30;85.90
28837;DHT22;50669;50.982;11.022;2023-10-19T05:44:24;19.10;84.10
28837;DHT22;50669;50.982;11.022;2023-10-19T05:46:51;18.80;83.70
28837;DHT22;50669;50.982;11.022;2023-10-19T05:49:16;18.40;84.70
28837;DHT22;50669;50.982;11.022;2023-10-19T05:51:43;18.00;85.40
28837;DHT22;50669;50.982;11.022;2023-10-19T05:54:10;17.80;86.40
28837;DHT22;50669;50.982;11.022;2023-10-19T05:56:36;17.60;86.50
28837;DHT22;50669;50.982;11.022;2023-10-19T05:59:04;17.50;87.10
28837;DHT22;50669;50.982;11.022;2023-10-19T06:01:34;17.40;89.00
28837;DHT22;50669;50.982;11.022;2023-10-19T06:04:02;17.10;87.70
28837;DHT22;50669;50.982;11.022;2023-10-19T06:06:33;16.90;89.80
28837;DHT22;50669;50.982;11.022;2023-10-19T06:08:59;16.40;90.00
28837;DHT22;50669;50.982;11.022;2023-10-19T06:11:28;16.20;90.40
28837;DHT22;50669;50.982;11.022;2023-10-19T06:13:57;15.70;90.80
28837;DHT22;50669;50.982;11.022;2023-10-19T06:16:23;15.50;91.70
28837;DHT22;50669;50.982;11.022;2023-10-19T06:18:49;15.80;92.00
28837;DHT22;50669;50.982;11.022;2023-10-19T06:21:17;16.40;91.70
28837;DHT22;50669;50.982;11.022;2023-10-19T06:23:45;16.90;91.00
28837;DHT22;50669;50.982;11.022;2023-10-19T06:26:10;17.40;90.50
28837;DHT22;50669;50.982;11.022;2023-10-19T06:28:40;17.80;90.00
28837;DHT22;50669;50.982;11.022;2023-10-19T06:31:06;18.10;89.20
28837;DHT22;50669;50.982;11.022;2023-10-19T06:33:34;18.30;88.30
28837;DHT22;50669;50.982;11.022;2023-10-19T06:36:06;18.60;87.80
28837;DHT22;50669;50.982;11.022;2023-10-19T06:38:32;18.70;87.20
28837;DHT22;50669;50.982;11.022;2023-10-19T06:40:59;18.90;86.80
28837;DHT22;50669;50.982;11.022;2023-10-19T06:43:30;19.00;86.40
28837;DHT22;50669;50.982;11.022;2023-10-19T06:45:58;19.10;86.10
28837;DHT22;50669;50.982;11.022;2023-10-19T06:48:26;19.20;85.80
28837;DHT22;50669;50.982;11.022;2023-10-19T06:50:54;19.30;85.50
28837;DHT22;50669;50.982;11.022;2023-10-19T06:53:20;19.40;85.40
28837;DHT22;50669;50.982;11.022;2023-10-19T06:55:49;19.40;85.10
28837;DHT22;50669;50.982;11.022;2023-10-19T06:58:17;19.50;85.00
28837;DHT22;50669;50.982;11.022;2023-10-19T07:00:46;19.50;84.80
28837;DHT22;50669;50.982;11.022;2023-10-19T07:03:21;19.50;84.60
28837;DHT22;50669;50.982;11.022;2023-10-19T07:05:48;19.60;84.40
28837;DHT22;50669;50.982;11.022;2023-10-19T07:08:15;19.60;84.30
28837;DHT22;50669;50.982;11.022;2023-10-19T07:10:44;19.60;84.10
28837;DHT22;50669;50.982;11.022;2023-10-19T07:13:14;19.70;84.10
28837;DHT22;50669;50.982;11.022;2023-10-19T07:15:47;19.70;84.00
28837;DHT22;50669;50.982;11.022;2023-10-19T07:18:14;19.70;83.90
28837;DHT22;50669;50.982;11.022;2023-10-19T07:20:40;19.80;83.80
28837;DHT22;50669;50.982;11.022;2023-10-19T07:23:08;19.80;83.70
28837;DHT22;50669;50.982;11.022;2023-10-19T07:25:52;19.80;83.60
28837;DHT22;50669;50.982;11.022;2023-10-19T07:28:25;19.80;83.50
28837;DHT22;50669;50.982;11.022;2023-10-19T07:30:54;19.80;83.50
28837;DHT22;50669;50.982;11.022;2023-10-19T07:33:20;19.90;83.40
28837;DHT22;50669;50.982;11.022;2023-10-19T07:35:47;19.90;83.30
28837;DHT22;50669;50.982;11.022;2023-10-19T07:38:16;19.90;83.10
28837;DHT22;50669;50.982;11.022;2023-10-19T07:40:48;19.90;83.20
28837;DHT22;50669;50.982;11.022;2023-10-19T07:43:16;20.00;83.10
28837;DHT22;50669;50.982;11.022;2023-10-19T07:45:45;19.90;82.90
28837;DHT22;50669;50.982;11.022;2023-10-19T07:48:13;20.00;83.00
28837;DHT22;50669;50.982;11.022;2023-10-19T07:50:39;20.00;82.90
28837;DHT22;50669;50.982;11.022;2023-10-19T07:53:10;20.00;82.90
28837;DHT22;50669;50.982;11.022;2023-10-19T07:55:36;20.00;82.70
28837;DHT22;50669;50.982;11.022;2023-10-19T07:58:05;20.00;82.60
28837;DHT22;50669;50.982;11.022;2023-10-19T08:00:32;20.00;82.60
28837;DHT22;50669;50.982;11.022;2023-10-19T08:03:01;20.00;82.60
28837;DHT22;50669;50.982;11.022;2023-10-19T08:05:28;20.00;82.50
28837;DHT22;50669;50.982;11.022;2023-10-19T08:07:53;20.00;82.50
28837;DHT22;50669;50.982;11.022;2023-10-19T08:10:20;20.10;82.40
28837;DHT22;50669;50.982;11.022;2023-10-19T08:12:49;20.10;82.40
28837;DHT22;50669;50.982;11.022;2023-10-19T08:15:17;20.10;82.30
28837;DHT22;50669;50.982;11.022;2023-10-19T08:17:49;20.10;82.30
28837;DHT22;50669;50.982;11.022;2023-10-19T08:20:15;20.10;82.30
28837;DHT22;50669;50.982;11.022;2023-10-19T08:22:44;20.10;82.20
28837;DHT22;50669;50.982;11.022;2023-10-19T08:25:13;20.10;82.10
28837;DHT22;50669;50.982;11.022;2023-10-19T08:27:41;20.10;82.10
28837;DHT22;50669;50.982;11.022;2023-10-19T08:30:13;20.10;82.00
28837;DHT22;50669;50.982;11.022;2023-10-19T08:32:40;20.10;81.90
28837;DHT22;50669;50.982;11.022;2023-10-19T08:35:09;20.20;82.00
28837;DHT22;50669;50.982;11.022;2023-10-19T08:37:38;20.10;81.90
28837;DHT22;50669;50.982;11.022;2023-10-19T08:40:09;20.20;81.90
28837;DHT22;50669;50.982;11.022;2023-10-19T08:42:42;20.20;81.80
28837;DHT22;50669;50.982;11.022;2023-10-19T08:45:09;20.10;81.80
28837;DHT22;50669;50.982;11.022;2023-10-19T08:47:58;20.20;81.70
28837;DHT22;50669;50.982;11.022;2023-10-19T08:50:27;20.20;81.80
28837;DHT22;50669;50.982;11.022;2023-10-19T08:52:55;20.20;81.70
28837;DHT22;50669;50.982;11.022;2023-10-19T08:55:21;20.20;81.70
28837;DHT22;50669;50.982;11.022;2023-10-19T08:57:51;20.20;81.60
28837;DHT22;50669;50.982;11.022;2023-10-19T09:00:18;20.20;81.60
28837;DHT22;50669;50.982;11.022;2023-10-19T09:02:51;20.20;81.50
28837;DHT22;50669;50.982;11.022;2023-10-19T09:05:18;20.20;81.50
28837;DHT22;50669;50.982;11.022;2023-10-19T09:07:56;20.20;81.40
28837;DHT22;50669;50.982;11.022;2023-10-19T09:10:26;20.20;81.30
28837;DHT22;50669;50.982;11.022;2023-10-19T09:13:07;20.20;81.30
28837;DHT22;50669;50.982;11.022;2023-10-19T09:15:40;20.30;81.30
28837;DHT22;50669;50.982;11.022;2023-10-19T09:18:11;20.20;81.30
28837;DHT22;50669;50.982;11.022;2023-10-19T09:20:39;20.20;81.30
28837;DHT22;50669;50.982;11.022;2023-10-19T09:23:06;20.20;81.90
28837;DHT22;50669;50.982;11.022;2023-10-19T09:25:35;20.30;81.20
28837;DHT22;50669;50.982;11.022;2023-10-19T09:28:01;20.30;81.20
28837;DHT22;50669;50.982;11.022;2023-10-19T09:30:29;20.30;81.20
28837;DHT22;50669;50.982;11.022;2023-10-19T09:32:57;20.20;81.10
28837;DHT22;50669;50.982;11.022;2023-10-19T09:35:24;20.30;81.20
28837;DHT22;50669;50.982;11.022;2023-10-19T09:37:54;20.30;81.10
28837;DHT22;50669;50.982;11.022;2023-10-19T09:40:20;20.30;81.10
28837;DHT22;50669;50.982;11.022;2023-10-19T09:42:47;20.30;81.10
28837;DHT22;50669;50.982;11.022;2023-10-19T09:45:19;20.30;81.10
28837;DHT22;50669;50.982;11.022;2023-10-19T09:47:50;20.30;81.00
28837;DHT22;50669;50.982;11.022;2023-10-19T09:50:16;20.30;81.00
28837;DHT22;50669;50.982;11.022;2023-10-19T09:52:42;20.30;80.90
28837;DHT22;50669;50.982;11.022;2023-10-19T09:55:24;20.30;80.90
28837;DHT22;50669;50.982;11.022;2023-10-19T10:00:27;20.30;80.90
28837;DHT22;50669;50.982;11.022;2023-10-19T10:02:59;20.30;80.80
28837;DHT22;50669;50.982;11.022;2023-10-19T10:05:45;20.30;80.80
28837;DHT22;50669;50.982;11.022;2023-10-19T10:08:29;20.30;80.80
28837;DHT22;50669;50.982;11.022;2023-10-19T10:10:55;20.30;80.80
28837;DHT22;50669;50.982;11.022;2023-10-19T10:15:51;20.30;80.70
28837;DHT22;50669;50.982;11.022;2023-10-19T10:18:17;20.30;80.70
28837;DHT22;50669;50.982;11.022;2023-10-19T10:20:43;20.30;80.70
28837;DHT22;50669;50.982;11.022;2023-10-19T10:23:23;20.30;80.70
28837;DHT22;50669;50.982;11.022;2023-10-19T10:25:57;20.30;80.70
28837;DHT22;50669;50.982;11.022;2023-10-19T10:28:24;20.30;80.60
28837;DHT22;50669;50.982;11.022;2023-10-19T10:31:09;20.30;80.60
28837;DHT22;50669;50.982;11.022;2023-10-19T10:33:42;20.30;80.60
28837;DHT22;50669;50.982;11.022;2023-10-19T10:36:11;20.30;80.50
28837;DHT22;50669;50.982;11.022;2023-10-19T10:38:37;20.30;80.50
28837;DHT22;50669;50.982;11.022;2023-10-19T10:41:03;20.30;80.50
28837;DHT22;50669;50.982;11.022;2023-10-19T10:43:51;20.30;80.40
28837;DHT22;50669;50.982;11.022;2023-10-19T10:46:18;20.40;80.50
28837;DHT22;50669;50.982;11.022;2023-10-19T10:48:47;20.40;80.50
28837;DHT22;50669;50.982;11.022;2023-10-19T10:51:23;20.30;80.40
28837;DHT22;50669;50.982;11.022;2023-10-19T10:53:51;20.40;80.50
28837;DHT22;50669;50.982;11.022;2023-10-19T10:56:18;20.30;80.40
28837;DHT22;50669;50.982;11.022;2023-10-19T10:58:46;20.30;80.30
28837;DHT22;50669;50.982;11.022;2023-10-19T11:01:12;20.40;80.40
28837;DHT22;50669;50.982;11.022;2023-10-19T11:03:40;20.40;80.40
28837;DHT22;50669;50.982;11.022;2023-10-19T11:06:07;20.40;80.40
28837;DHT22;50669;50.982;11.022;2023-10-19T11:08:36;20.40;80.30
28837;DHT22;50669;50.982;11.022;2023-10-19T11:11:03;20.40;80.20
28837;DHT22;50669;50.982;11.022;2023-10-19T11:13:30;20.40;80.10
28837;DHT22;50669;50.982;11.022;2023-10-19T11:15:59;20.40;80.10
28837;DHT22;50669;50.982;11.022;2023-10-19T11:18:39;20.40;80.00
28837;DHT22;50669;50.982;11.022;2023-10-19T11:21:10;20.50;80.00
28837;DHT22;50669;50.982;11.022;2023-10-19T11:23:49;20.50;80.00
28837;DHT22;50669;50.982;11.022;2023-10-19T11:26:22;20.50;80.00
28837;DHT22;50669;50.982;11.022;2023-10-19T11:29:03;20.50;80.00
28837;DHT22;50669;50.982;11.022;2023-10-19T11:31:35;20.50;79.90
28837;DHT22;50669;50.982;11.022;2023-10-19T11:34:06;20.50;79.90
28837;DHT22;50669;50.982;11.022;2023-10-19T11:36:36;20.50;79.90
28837;DHT22;50669;50.982;11.022;2023-10-19T11:39:02;20.50;79.90
28837;DHT22;50669;50.982;11.022;2023-10-19T11:41:29;20.50;79.80
28837;DHT22;50669;50.982;11.022;2023-10-19T11:43:55;20.50;79.70
28837;DHT22;50669;50.982;11.022;2023-10-19T11:46:23;20.60;79.70
28837;DHT22;50669;50.982;11.022;2023-10-19T11:48:50;20.60;79.70
28837;DHT22;50669;50.982;11.022;2023-10-19T11:51:16;20.60;79.70
28837;DHT22;50669;50.982;11.022;2023-10-19T11:53:42;20.60;79.70
28837;DHT22;50669;50.982;11.022;2023-10-19T11:56:12;20.60;79.70
28837;DHT22;50669;50.982;11.022;2023-10-19T11:58:38;20.60;79.70
28837;DHT22;50669;50.982;11.022;2023-10-19T12:01:08;20.60;79.60
28837;DHT22;50669;50.982;11.022;2023-10-19T12:03:39;20.60;79.60
28837;DHT22;50669;50.982;11.022;2023-10-19T12:06:09;20.60;79.50
28837;DHT22;50669;50.982;11.022;2023-10-19T12:08:36;20.60;79.50
28837;DHT22;50669;50.982;11.022;2023-10-19T12:11:02;20.60;79.50
28837;DHT22;50669;50.982;11.022;2023-10-19T12:13:29;20.60;79.50
28837;DHT22;50669;50.982;11.022;2023-10-19T12:15:56;20.60;79.50
28837;DHT22;50669;50.982;11.022;2023-10-19T12:18:32;20.60;79.50
28837;DHT22;50669;50.982;11.022;2023-10-19T12:21:00;20.60;79.40
28837;DHT22;50669;50.982;11.022;2023-10-19T12:23:26;20.60;79.40
28837;DHT22;50669;50.982;11.022;2023-10-19T12:25:52;20.60;79.30
28837;DHT22;50669;50.982;11.022;2023-10-19T12:28:18;20.60;79.30
28837;DHT22;50669;50.982;11.022;2023-10-19T12:30:47;20.60;79.30
28837;DHT22;50669;50.982;11.022;2023-10-19T12:33:12;20.60;79.20
28837;DHT22;50669;50.982;11.022;2023-10-19T12:35:40;20.70;79.20
28837;DHT22;50669;50.982;11.022;2023-10-19T12:38:19;20.70;79.20
28837;DHT22;50669;50.982;11.022;2023-10-19T12:40:51;20.70;79.20
28837;DHT22;50669;50.982;11.022;2023-10-19T12:43:21;20.70;79.10
28837;DHT22;50669;50.982;11.022;2023-10-19T12:45:55;20.70;79.00
28837;DHT22;50669;50.982;11.022;2023-10-19T12:48:23;20.70;79.20
28837;DHT22;50669;50.982;11.022;2023-10-19T12:50:55;20.70;79.10
28837;DHT22;50669;50.982;11.022;2023-10-19T12:53:25;20.60;79.20
28837;DHT22;50669;50.982;11.022;2023-10-19T12:55:51;20.60;79.20
28837;DHT22;50669;50.982;11.022;2023-10-19T12:58:17;20.60;79.10
28837;DHT22;50669;50.982;11.022;2023-10-19T13:00:46;20.60;79.00
28837;DHT22;50669;50.982;11.022;2023-10-19T13:03:15;20.60;79.10
28837;DHT22;50669;50.982;11.022;2023-10-19T13:05:42;20.60;79.10
28837;DHT22;50669;50.982;11.022;2023-10-19T13:08:13;20.70;79.20
28837;DHT22;50669;50.982;11.022;2023-10-19T13:10:40;20.70;79.10
28837;DHT22;50669;50.982;11.022;2023-10-19T13:13:12;20.70;79.10
28837;DHT22;50669;50.982;11.022;2023-10-19T13:15:39;20.70;79.00
28837;DHT22;50669;50.982;11.022;2023-10-19T13:18:06;20.70;79.00
28837;DHT22;50669;50.982;11.022;2023-10-19T13:20:34;20.60;79.00
28837;DHT22;50669;50.982;11.022;2023-10-19T13:23:01;20.70;79.00
28837;DHT22;50669;50.982;11.022;2023-10-19T13:25:30;20.60;78.90
28837;DHT22;50669;50.982;11.022;2023-10-19T13:28:13;20.70;79.00
28837;DHT22;50669;50.982;11.022;2023-10-19T13:30:46;20.70;79.20
28837;DHT22;50669;50.982;11.022;2023-10-19T13:33:15;20.70;79.20
28837;DHT22;50669;50.982;11.022;2023-10-19T13:35:43;20.60;79.10
28837;DHT22;50669;50.982;11.022;2023-10-19T13:38:10;20.70;79.20
28837;DHT22;50669;50.982;11.022;2023-10-19T13:40:38;20.70;79.20
28837;DHT22;50669;50.982;11.022;2023-10-19T13:43:05;20.60;79.20
28837;DHT22;50669;50.982;11.022;2023-10-19T13:45:36;20.60;79.20
28837;DHT22;50669;50.982;11.022;2023-10-19T13:48:03;20.60;79.20
28837;DHT22;50669;50.982;11.022;2023-10-19T13:50:33;20.60;79.20
28837;DHT22;50669;50.982;11.022;2023-10-19T13:53:00;20.60;79.20
28837;DHT22;50669;50.982;11.022;2023-10-19T13:55:26;20.60;79.20
28837;DHT22;50669;50.982;11.022;2023-10-19T13:57:55;20.60;79.30
28837;DHT22;50669;50.982;11.022;2023-10-19T14:00:22;20.60;79.30
28837;DHT22;50669;50.982;11.022;2023-10-19T14:03:09;20.60;79.30
28837;DHT22;50669;50.982;11.022;2023-10-19T14:05:40;20.60;79.30
28837;DHT22;50669;50.982;11.022;2023-10-19T14:08:08;20.50;79.30
28837;DHT22;50669;50.982;11.022;2023-10-19T14:10:35;20.60;79.40
28837;DHT22;50669;50.982;11.022;2023-10-19T14:13:03;20.50;79.30
28837;DHT22;50669;50.982;11.022;2023-10-19T14:15:30;20.60;79.40
28837;DHT22;50669;50.982;11.022;2023-10-19T14:17:59;20.50;79.30
28837;DHT22;50669;50.982;11.022;2023-10-19T14:20:25;20.50;79.30
28837;DHT22;50669;50.982;11.022;2023-10-19T14:22:51;20.50;79.30
28837;DHT22;50669;50.982;11.022;2023-10-19T14:25:19;20.50;79.30
28837;DHT22;50669;50.982;11.022;2023-10-19T14:27:47;20.50;79.20
28837;DHT22;50669;50.982;11.022;2023-10-19T14:30:26;20.50;79.20
28837;DHT22;50669;50.982;11.022;2023-10-19T14:32:55;20.60;79.30
28837;DHT22;50669;50.982;11.022;2023-10-19T14:35:23;20.50;79.30
28837;DHT22;50669;50.982;11.022;2023-10-19T14:37:55;20.50;79.30
28837;DHT22;50669;50.982;11.022;2023-10-19T14:40:23;20.50;79.20
28837;DHT22;50669;50.982;11.022;2023-10-19T14:42:51;20.50;79.20
28837;DHT22;50669;50.982;11.022;2023-10-19T14:45:28;20.50;79.30
28837;DHT22;50669;50.982;11.022;2023-10-19T14:47:55;20.50;79.30
28837;DHT22;50669;50.982;11.022;2023-10-19T14:50:24;20.50;79.20
28837;DHT22;50669;50.982;11.022;2023-10-19T14:52:52;20.50;79.30
28837;DHT22;50669;50.982;11.022;2023-10-19T14:55:19;20.50;79.30
28837;DHT22;50669;50.982;11.022;2023-10-19T14:57:46;20.50;79.30
28837;DHT22;50669;50.982;11.022;2023-10-19T15:00:17;20.40;79.30
28837;DHT22;50669;50.982;11.022;2023-10-19T15:02:44;20.50;79.30
28837;DHT22;50669;50.982;11.022;2023-10-19T15:05:11;20.50;79.30
28837;DHT22;50669;50.982;11.022;2023-10-19T15:07:51;20.40;79.30
28837;DHT22;50669;50.982;11.022;2023-10-19T15:10:19;20.40;79.30
28837;DHT22;50669;50.982;11.022;2023-10-19T15:12:47;20.40;79.30
28837;DHT22;50669;50.982;11.022;2023-10-19T15:15:16;20.40;79.60
28837;DHT22;50669;50.982;11.022;2023-10-19T15:17:46;20.40;79.30
28837;DHT22;50669;50.982;11.022;2023-10-19T15:20:13;20.40;79.40
28837;DHT22;50669;50.982;11.022;2023-10-19T15:22:52;20.40;79.30
28837;DHT22;50669;50.982;11.022;2023-10-19T15:25:20;20.50;79.40
28837;DHT22;50669;50.982;11.022;2023-10-19T15:27:47;20.40;79.30
28837;DHT22;50669;50.982;11.022;2023-10-19T15:30:16;20.40;79.30
28837;DHT22;50669;50.982;11.022;2023-10-19T15:32:47;20.40;79.30
28837;DHT22;50669;50.982;11.022;2023-10-19T15:35:15;20.40;79.30
28837;DHT22;50669;50.982;11.022;2023-10-19T15:37:44;20.40;79.30
28837;DHT22;50669;50.982;11.022;2023-10-19T15:40:13;20.40;79.30